createdAt,value
2018-06-15T00:00:30.634Z,16.20
2018-06-15T00:03:01.554Z,16.10
2018-06-15T00:05:30.704Z,16.10
2018-06-15T00:07:59.655Z,16.10
2018-06-15T00:10:28.672Z,16.20
2018-06-15T00:12:59.709Z,16.10
2018-06-15T00:15:28.907Z,16.10
2018-06-15T00:17:58.044Z,16.10
2018-06-15T00:20:27.302Z,16.10
2018-06-15T00:22:56.271Z,16.10
2018-06-15T00:25:25.268Z,16.20
2018-06-15T00:27:54.231Z,16.20
2018-06-15T00:30:23.225Z,16.20
2018-06-15T00:32:54.214Z,16.10
2018-06-15T00:35:23.387Z,16.10
2018-06-15T00:37:53.946Z,16.10
2018-06-15T00:40:23.091Z,16.10
2018-06-15T00:45:20.719Z,16.20
2018-06-15T00:47:49.770Z,16.20
2018-06-15T00:50:18.765Z,16.20
2018-06-15T00:52:47.790Z,16.20
2018-06-15T00:55:16.676Z,16.20
2018-06-15T00:57:48.957Z,16.20
2018-06-15T01:00:18.723Z,16.20
2018-06-15T01:02:48.001Z,16.20
2018-06-15T01:05:16.941Z,16.20
2018-06-15T01:07:45.918Z,16.20
2018-06-15T01:10:14.829Z,16.20
2018-06-15T01:12:43.772Z,16.10
2018-06-15T01:15:12.705Z,16.10
2018-06-15T01:17:41.673Z,16.10
2018-06-15T01:20:10.556Z,16.10
2018-06-15T01:22:39.557Z,16.00
2018-06-15T01:25:08.478Z,16.00
2018-06-15T01:27:37.361Z,15.90
2018-06-15T01:30:06.804Z,15.90
2018-06-15T01:32:35.691Z,15.90
2018-06-15T01:35:04.862Z,15.80
2018-06-15T01:37:33.863Z,15.80
2018-06-15T01:40:02.753Z,15.80
2018-06-15T01:42:31.677Z,15.70
2018-06-15T01:47:29.081Z,15.70
2018-06-15T01:49:58.004Z,15.70
2018-06-15T01:52:26.833Z,15.70
2018-06-15T01:54:55.755Z,15.60
2018-06-15T01:57:24.735Z,15.60
2018-06-15T01:59:53.603Z,15.60
2018-06-15T02:02:22.446Z,15.60
2018-06-15T02:04:51.368Z,15.60
2018-06-15T02:07:20.385Z,15.60
2018-06-15T02:09:49.340Z,15.60
2018-06-15T02:12:18.127Z,15.60
2018-06-15T02:14:47.051Z,15.70
2018-06-15T02:17:15.914Z,15.60
2018-06-15T02:19:44.855Z,15.60
2018-06-15T02:22:13.803Z,15.60
2018-06-15T02:24:42.831Z,15.70
2018-06-15T02:27:11.842Z,15.70
2018-06-15T02:29:40.706Z,15.70
2018-06-15T02:32:09.598Z,15.80
2018-06-15T02:34:38.510Z,15.70
2018-06-15T02:37:07.403Z,15.70
2018-06-15T02:39:36.283Z,15.80
2018-06-15T02:42:05.131Z,15.70
2018-06-15T02:44:34.093Z,15.70
2018-06-15T02:47:03.133Z,15.70
2018-06-15T02:49:32.013Z,15.80
2018-06-15T02:52:00.911Z,15.80
2018-06-15T02:54:29.798Z,15.80
2018-06-15T02:56:58.766Z,15.80
2018-06-15T03:01:56.233Z,15.80
2018-06-15T03:04:25.144Z,15.80
2018-06-15T03:06:54.115Z,15.80
2018-06-15T03:09:23.053Z,15.80
2018-06-15T03:11:51.960Z,15.90
2018-06-15T03:14:20.910Z,15.90
2018-06-15T03:16:49.741Z,15.90
2018-06-15T03:19:18.736Z,15.90
2018-06-15T03:21:47.623Z,15.90
2018-06-15T03:24:16.499Z,15.90
2018-06-15T03:26:45.410Z,15.90
2018-06-15T03:29:14.366Z,15.90
2018-06-15T03:31:43.235Z,15.90
2018-06-15T03:34:12.133Z,16.00
2018-06-15T03:36:41.199Z,15.90
2018-06-15T03:39:11.730Z,15.70
2018-06-15T03:41:40.656Z,15.70
2018-06-15T03:44:12.710Z,15.70
2018-06-15T03:46:41.635Z,15.70
2018-06-15T03:49:10.515Z,15.60
2018-06-15T03:51:39.477Z,15.70
2018-06-15T03:54:08.469Z,15.70
2018-06-15T03:56:37.424Z,15.70
2018-06-15T03:59:06.577Z,15.80
2018-06-15T04:01:35.478Z,15.80
2018-06-15T04:04:04.373Z,15.80
2018-06-15T04:06:33.218Z,15.80
2018-06-15T04:09:02.055Z,15.80
2018-06-15T04:11:30.986Z,15.80
2018-06-15T04:14:00.120Z,15.80
2018-06-15T04:16:29.061Z,15.90
2018-06-15T04:18:57.941Z,15.90
2018-06-15T04:21:26.930Z,15.90
2018-06-15T04:23:55.794Z,15.90
2018-06-15T04:26:24.664Z,16.00
2018-06-15T04:28:53.598Z,16.00
2018-06-15T04:31:22.606Z,16.10
2018-06-15T04:33:51.534Z,16.10
2018-06-15T04:36:20.571Z,16.10
2018-06-15T04:38:49.435Z,16.00
2018-06-15T04:41:18.393Z,16.00
2018-06-15T04:43:47.411Z,15.90
2018-06-15T04:46:16.550Z,15.90
2018-06-15T04:48:45.498Z,16.00
2018-06-15T04:51:14.365Z,16.00
2018-06-15T04:53:43.344Z,16.00
2018-06-15T04:56:12.322Z,16.00
2018-06-15T04:58:41.492Z,16.00
2018-06-15T05:01:10.353Z,16.00
2018-06-15T05:03:39.311Z,16.00
2018-06-15T05:06:08.383Z,16.10
2018-06-15T05:08:37.372Z,16.10
2018-06-15T05:11:06.439Z,16.10
2018-06-15T05:13:35.504Z,16.10
2018-06-15T05:16:04.693Z,16.10
2018-06-15T05:18:33.766Z,16.20
2018-06-15T05:21:02.745Z,16.30
2018-06-15T05:23:31.805Z,16.40
2018-06-15T05:26:00.784Z,16.40
2018-06-15T05:28:29.733Z,16.50
2018-06-15T05:30:58.776Z,16.50
2018-06-15T05:33:28.170Z,16.60
2018-06-15T05:35:57.924Z,16.70
2018-06-15T05:38:26.900Z,16.70
2018-06-15T05:40:55.948Z,16.70
2018-06-15T05:43:25.132Z,16.80
2018-06-15T05:45:54.321Z,16.80
2018-06-15T05:48:23.244Z,16.90
2018-06-15T05:50:52.334Z,17.00
2018-06-15T05:55:50.175Z,17.10
2018-06-15T05:58:19.205Z,17.20
2018-06-15T06:00:48.168Z,17.20
2018-06-15T06:03:19.636Z,17.30
2018-06-15T06:05:49.381Z,17.30
2018-06-15T06:08:20.220Z,17.20
2018-06-15T06:10:49.689Z,17.30
2018-06-15T06:13:18.968Z,17.30
2018-06-15T06:15:47.975Z,17.40
2018-06-15T06:18:16.873Z,17.50
2018-06-15T06:20:45.915Z,17.60
2018-06-15T06:23:14.849Z,17.70
2018-06-15T06:25:47.595Z,17.70
2018-06-15T06:28:18.822Z,17.70
2018-06-15T06:30:51.756Z,17.80
2018-06-15T06:33:27.366Z,17.80
2018-06-15T06:35:56.393Z,17.90
2018-06-15T06:38:25.584Z,18.10
2018-06-15T06:40:59.623Z,18.20
2018-06-15T06:43:30.847Z,18.20
2018-06-15T06:45:59.807Z,18.20
2018-06-15T06:48:28.887Z,18.30
2018-06-15T06:50:58.038Z,18.30
2018-06-15T06:53:27.042Z,18.40
2018-06-15T06:55:56.318Z,18.60
2018-06-15T06:58:25.848Z,18.80
2018-06-15T07:00:55.040Z,18.90
2018-06-15T07:03:24.132Z,19.00
2018-06-15T07:05:53.516Z,19.00
2018-06-15T07:08:22.578Z,18.90
2018-06-15T07:10:52.007Z,18.90
2018-06-15T07:13:21.033Z,18.90
2018-06-15T07:15:50.346Z,19.00
2018-06-15T07:18:19.704Z,19.10
2018-06-15T07:20:49.305Z,19.10
2018-06-15T07:23:19.289Z,19.00
2018-06-15T07:25:48.199Z,19.10
2018-06-15T07:28:17.139Z,19.10
2018-06-15T07:30:45.986Z,19.00
2018-06-15T07:33:14.836Z,19.00
2018-06-15T07:35:43.680Z,19.10
2018-06-15T07:38:12.592Z,19.10
2018-06-15T07:40:41.368Z,19.10
2018-06-15T07:43:11.326Z,19.00
2018-06-15T07:45:40.402Z,19.00
2018-06-15T07:48:11.417Z,19.10
2018-06-15T07:50:40.854Z,19.10
2018-06-15T07:53:09.746Z,19.20
2018-06-15T07:55:38.461Z,19.10
2018-06-15T07:58:07.430Z,19.20
2018-06-15T08:00:36.294Z,19.40
2018-06-15T08:03:06.283Z,19.50
2018-06-15T08:08:04.794Z,19.90
2018-06-15T08:10:33.677Z,20.10
2018-06-15T08:13:02.404Z,20.10
2018-06-15T08:15:31.310Z,20.10
2018-06-15T08:18:00.062Z,20.30
2018-06-15T08:20:29.035Z,20.60
2018-06-15T08:22:58.049Z,20.70
2018-06-15T08:25:27.000Z,20.60
2018-06-15T08:27:55.808Z,20.50
2018-06-15T08:30:24.861Z,20.50
2018-06-15T08:32:53.564Z,20.50
2018-06-15T08:35:22.373Z,20.40
2018-06-15T08:37:51.193Z,20.50
2018-06-15T08:40:19.921Z,20.40
2018-06-15T08:42:48.682Z,20.50
2018-06-15T08:45:17.529Z,20.40
2018-06-15T08:47:46.444Z,20.30
2018-06-15T08:50:15.295Z,20.50
2018-06-15T08:52:44.150Z,20.40
2018-06-15T08:55:12.836Z,20.40
2018-06-15T08:57:41.877Z,20.60
2018-06-15T09:00:10.865Z,20.80
2018-06-15T09:02:40.132Z,20.90
2018-06-15T09:05:09.619Z,21.10
2018-06-15T09:07:38.695Z,21.10
2018-06-15T09:10:07.601Z,20.80
2018-06-15T09:12:36.591Z,20.70
2018-06-15T09:15:05.552Z,20.70
2018-06-15T09:17:34.422Z,20.70
2018-06-15T09:20:05.449Z,20.60
2018-06-15T09:22:34.593Z,20.70
2018-06-15T09:25:03.979Z,21.10
2018-06-15T09:27:33.028Z,21.40
2018-06-15T09:30:02.509Z,21.30
2018-06-15T09:32:32.023Z,21.20
2018-06-15T09:35:01.578Z,21.20
2018-06-15T09:37:30.683Z,21.50
2018-06-15T09:40:00.189Z,21.70
2018-06-15T09:42:29.605Z,21.90
2018-06-15T09:44:58.729Z,21.90
2018-06-15T09:47:28.052Z,22.00
2018-06-15T09:49:57.615Z,22.20
2018-06-15T09:52:26.580Z,22.20
2018-06-15T09:54:55.751Z,22.00
2018-06-15T09:57:26.758Z,21.90
2018-06-15T09:59:59.368Z,21.60
2018-06-15T10:02:29.859Z,21.50
2018-06-15T10:05:01.920Z,21.20
2018-06-15T10:07:32.655Z,21.10
2018-06-15T10:10:02.298Z,20.90
2018-06-15T10:12:33.150Z,21.10
2018-06-15T10:15:03.686Z,21.10
2018-06-15T10:17:37.124Z,21.20
2018-06-15T10:20:08.224Z,21.30
2018-06-15T10:22:38.153Z,21.50
2018-06-15T10:27:36.526Z,22.50
2018-06-15T10:30:06.053Z,22.70
2018-06-15T10:32:35.377Z,22.70
2018-06-15T10:35:04.863Z,23.40
2018-06-15T10:37:33.956Z,23.70
2018-06-15T10:40:03.036Z,23.70
2018-06-15T10:42:32.289Z,24.20
2018-06-15T10:45:01.517Z,24.70
2018-06-15T10:47:30.778Z,25.30
2018-06-15T10:49:59.847Z,25.50
2018-06-15T10:52:28.999Z,25.20
2018-06-15T10:54:58.469Z,24.70
2018-06-15T10:57:27.668Z,24.90
2018-06-15T10:59:56.747Z,25.30
2018-06-15T11:02:26.119Z,25.10
2018-06-15T11:04:55.419Z,24.60
2018-06-15T11:07:24.659Z,24.00
2018-06-15T11:09:53.685Z,23.80
2018-06-15T11:12:22.723Z,23.90
2018-06-15T11:14:51.868Z,24.30
2018-06-15T11:17:21.169Z,24.30
2018-06-15T11:19:51.324Z,24.40
2018-06-15T11:22:20.480Z,24.40
2018-06-15T11:32:20.112Z,23.70
2018-06-15T11:34:49.240Z,23.90
2018-06-15T11:37:18.575Z,23.80
2018-06-15T11:39:47.763Z,23.70
2018-06-15T11:42:19.092Z,23.50
2018-06-15T11:44:48.159Z,23.30
2018-06-15T11:47:17.280Z,23.10
2018-06-15T11:49:46.464Z,23.20
2018-06-15T11:52:17.328Z,23.20
2018-06-15T11:54:48.169Z,22.90
2018-06-15T11:59:46.001Z,22.80
2018-06-15T12:02:16.769Z,22.90
2018-06-15T12:04:47.537Z,22.80
2018-06-15T12:07:16.576Z,22.90
2018-06-15T12:09:46.516Z,22.80
2018-06-15T12:12:18.053Z,22.60
2018-06-15T12:14:47.590Z,22.40
2018-06-15T12:17:16.807Z,22.40
2018-06-15T12:19:47.494Z,22.60
2018-06-15T12:22:19.062Z,22.80
2018-06-15T12:24:49.477Z,22.80
2018-06-15T12:27:18.671Z,23.00
2018-06-15T12:29:48.880Z,23.30
2018-06-15T12:32:18.338Z,23.60
2018-06-15T12:34:48.326Z,23.70
2018-06-15T12:37:20.283Z,23.70
2018-06-15T12:39:51.181Z,24.00
2018-06-15T12:42:21.879Z,24.00
2018-06-15T12:44:51.487Z,24.00
2018-06-15T12:47:20.521Z,24.00
2018-06-15T12:49:50.389Z,24.20
2018-06-15T12:52:19.645Z,25.00
2018-06-15T12:54:51.388Z,26.20
2018-06-15T12:57:22.257Z,26.80
2018-06-15T12:59:51.882Z,27.40
2018-06-15T13:02:22.617Z,28.50
2018-06-15T13:04:53.705Z,29.00
2018-06-15T13:09:53.402Z,30.10
2018-06-15T13:12:28.801Z,30.70
2018-06-15T13:17:26.767Z,30.60
2018-06-15T13:19:56.154Z,30.40
2018-06-15T13:22:25.301Z,29.90
2018-06-15T13:24:56.876Z,28.80
2018-06-15T13:27:26.678Z,28.80
2018-06-15T13:29:58.389Z,28.80
2018-06-15T13:32:28.937Z,29.20
2018-06-15T13:37:28.752Z,30.60
2018-06-15T13:40:00.434Z,31.30
2018-06-15T13:45:19.876Z,30.90
2018-06-15T13:47:57.310Z,30.80
2018-06-15T13:53:08.153Z,31.20
2018-06-15T13:55:49.542Z,31.60
2018-06-15T13:58:44.618Z,31.10
2018-06-15T14:01:17.572Z,31.30
2018-06-15T14:03:53.746Z,32.30
2018-06-15T14:06:27.086Z,31.80
2018-06-15T14:09:03.774Z,32.60
2018-06-15T14:11:37.145Z,32.50
2018-06-15T14:16:43.165Z,30.40
2018-06-15T14:19:12.378Z,29.90
2018-06-15T14:21:43.985Z,29.80
2018-06-15T14:24:15.300Z,30.00
2018-06-15T14:26:50.706Z,29.70
2018-06-15T14:29:29.694Z,29.60
2018-06-15T14:34:32.144Z,30.30
2018-06-15T14:37:07.322Z,30.90
2018-06-15T14:39:37.877Z,31.50
2018-06-15T14:42:14.816Z,31.80
2018-06-15T14:44:43.886Z,33.20
2018-06-15T14:47:12.813Z,32.50
2018-06-15T14:49:44.189Z,31.00
2018-06-15T14:52:34.742Z,31.00
2018-06-15T14:55:05.272Z,31.80
2018-06-15T14:57:34.672Z,32.90
2018-06-15T15:00:03.918Z,32.90
2018-06-15T15:02:37.465Z,32.90
2018-06-15T15:05:06.880Z,31.10
2018-06-15T15:07:35.934Z,30.00
2018-06-15T15:10:13.479Z,29.40
2018-06-15T15:12:49.585Z,28.70
2018-06-15T15:15:18.574Z,28.10
2018-06-15T15:17:47.625Z,27.90
2018-06-15T15:20:16.987Z,27.60
2018-06-15T15:22:46.185Z,27.00
2018-06-15T15:25:21.987Z,26.90
2018-06-15T15:27:51.408Z,27.20
2018-06-15T15:30:20.520Z,27.60
2018-06-15T15:32:52.527Z,28.30
2018-06-15T15:35:28.932Z,28.70
2018-06-15T15:38:00.451Z,29.30
2018-06-15T15:40:30.400Z,30.10
2018-06-15T15:42:59.447Z,30.60
2018-06-15T15:45:28.572Z,31.60
2018-06-15T15:48:04.503Z,32.00
2018-06-15T15:50:41.967Z,32.30
2018-06-15T15:53:22.418Z,32.20
2018-06-15T15:55:55.179Z,33.30
2018-06-15T15:58:40.581Z,32.20
2018-06-15T16:01:13.948Z,31.20
2018-06-15T17:32:01.129Z,24.70
2018-06-15T17:49:54.887Z,24.00
2018-06-15T17:55:28.256Z,24.00
2018-06-15T18:04:19.062Z,24.00
2018-06-15T18:21:37.985Z,23.80
2018-06-15T18:51:35.054Z,23.10
2018-06-15T19:03:58.677Z,22.80
2018-06-15T19:09:49.274Z,22.70
2018-06-15T19:12:53.927Z,22.60
2018-06-15T19:18:53.839Z,22.50
2018-06-15T19:27:32.251Z,22.50
2018-06-15T19:30:44.798Z,22.40
2018-06-15T19:33:44.327Z,22.40
2018-06-15T19:44:54.543Z,22.20
2018-06-15T19:47:45.596Z,22.20
2018-06-15T19:50:48.329Z,22.10
2018-06-15T19:53:48.112Z,22.00
2018-06-15T20:02:10.700Z,21.80
2018-06-15T20:05:06.395Z,21.70
2018-06-15T20:08:00.892Z,21.60
2018-06-15T20:10:43.758Z,21.50
2018-06-15T20:13:32.801Z,21.50
2018-06-15T20:16:27.011Z,21.50
2018-06-15T20:19:12.910Z,21.40
2018-06-15T20:22:00.215Z,21.40
2018-06-15T20:27:24.761Z,21.30
2018-06-15T20:30:15.483Z,21.30
2018-06-15T20:33:05.578Z,21.30
2018-06-15T20:35:56.166Z,21.20
2018-06-15T20:38:49.142Z,21.20
2018-06-15T20:50:05.714Z,21.20
2018-06-15T20:55:39.926Z,21.20
2018-06-15T20:58:28.985Z,21.10
2018-06-15T21:01:19.100Z,21.00
2018-06-15T21:04:12.622Z,21.10
2018-06-15T21:06:59.518Z,21.00
2018-06-15T21:15:13.021Z,21.00
2018-06-15T21:18:00.933Z,21.00
2018-06-15T21:20:50.336Z,21.00
2018-06-15T21:29:08.620Z,20.90
2018-06-15T21:31:54.560Z,20.80
2018-06-15T21:37:22.769Z,20.70
2018-06-15T21:40:09.130Z,20.70
2018-06-15T21:42:57.189Z,20.60
2018-06-15T21:45:48.912Z,20.50
2018-06-15T21:51:23.329Z,20.40
2018-06-15T21:54:06.731Z,20.40
2018-06-15T21:56:51.715Z,20.30
2018-06-15T21:59:34.968Z,20.30
2018-06-15T22:02:28.116Z,20.30
2018-06-15T22:05:02.978Z,20.20
2018-06-15T22:07:38.946Z,20.10
2018-06-15T22:10:12.981Z,20.00
2018-06-15T22:15:24.812Z,20.00
2018-06-15T22:17:58.711Z,19.90
2018-06-15T22:20:33.663Z,19.90
2018-06-15T22:25:42.184Z,19.70
2018-06-15T22:28:14.724Z,19.70
2018-06-15T22:30:49.905Z,19.60
2018-06-15T22:41:10.744Z,19.60
2018-06-15T22:43:43.457Z,19.60
2018-06-15T22:59:14.974Z,19.50
2018-06-15T23:01:50.734Z,19.50
2018-06-15T23:04:24.526Z,19.40
2018-06-15T23:07:04.482Z,19.40
2018-06-15T23:12:16.826Z,19.30
2018-06-15T23:14:50.515Z,19.30
2018-06-15T23:20:04.717Z,19.20
2018-06-15T23:22:38.737Z,19.20
2018-06-15T23:25:12.318Z,19.10
2018-06-15T23:27:47.934Z,19.00
2018-06-15T23:30:21.831Z,19.00
2018-06-15T23:38:08.293Z,18.90
2018-06-15T23:43:15.679Z,18.90
2018-06-15T23:48:25.250Z,18.90
2018-06-15T23:53:39.368Z,18.90
2018-06-15T23:56:14.443Z,18.90
2018-06-15T23:58:50.948Z,18.90
